Time;durP1;ratioP1;P1;durP2;ratioP2;P2;SDS_P1;SDS_P2;PMS_P1;PMS_P2;Temp;Humidity;BMP_temperature;BMP_pressure;BME280_temperature;BME280_humidity;BME280_pressure;Samples;Min_cycle;Max_cycle;Signal;HPM_P1;HPM_P2
2022/05/27 00:00:12;;;;;;;9.32;8.63;;;;;;;24.72;46.92;100728.75;5113427;28;20423;-67
2022/05/27 00:02:39;;;;;;;9.07;8.27;;;;;;;24.74;46.05;100726.31;5105203;28;20079;-67
2022/05/27 00:05:07;;;;;;;8.38;7.78;;;;;;;24.66;45.73;100713.91;5098170;28;20078;-67
2022/05/27 00:07:34;;;;;;;9.20;8.30;;;;;;;24.70;45.32;100726.25;5112387;28;20050;-66
2022/05/27 00:10:01;;;;;;;10.02;9.07;;;;;;;24.70;45.33;100720.53;5113101;28;20518;-66
2022/05/27 00:12:28;;;;;;;9.90;7.95;;;;;;;24.75;45.00;100727.97;5111894;28;20557;-67
2022/05/27 00:14:54;;;;;;;8.32;7.72;;;;;;;24.51;44.30;100697.63;5113290;28;20458;-67
2022/05/27 00:17:22;;;;;;;11.57;10.57;;;;;;;24.77;44.08;100729.25;5111845;28;20048;-66
2022/05/27 00:19:50;;;;;;;10.43;9.50;;;;;;;24.62;44.37;100710.16;5109840;28;20135;-66
2022/05/27 00:22:17;;;;;;;9.45;8.65;;;;;;;24.77;43.82;100737.81;5112932;28;20131;-66
2022/05/27 00:24:44;;;;;;;10.68;9.73;;;;;;;24.64;44.12;100716.31;5112953;28;20130;-67
2022/05/27 00:27:11;;;;;;;8.52;7.07;;;;;;;24.53;44.13;100713.19;5113006;28;20074;-68
2022/05/27 00:29:38;;;;;;;7.80;7.10;;;;;;;24.30;43.72;100672.22;5111848;28;20134;-70
2022/05/27 00:32:25;;;;;;;9.07;8.25;;;;;;;24.58;43.49;100712.06;5112199;28;20048;-67
2022/05/27 00:34:52;;;;;;;8.40;7.45;;;;;;;24.56;43.00;100715.31;5111296;28;20514;-66
2022/05/27 00:37:20;;;;;;;8.65;7.90;;;;;;;24.64;42.51;100719.16;5112757;28;20433;-66
2022/05/27 00:39:46;;;;;;;8.02;7.45;;;;;;;24.62;42.06;100701.59;5145846;27;20130;-67
2022/05/27 00:42:13;;;;;;;7.88;7.00;;;;;;;24.52;41.67;100685.03;5103904;28;20206;-67
2022/05/27 00:44:40;;;;;;;8.35;7.63;;;;;;;24.63;41.74;100703.22;5112712;28;20138;-67
2022/05/27 00:47:12;;;;;;;8.15;7.60;;;;;;;24.68;41.72;100707.81;5112538;28;20142;-67
2022/05/27 00:49:51;;;;;;;7.38;6.72;;;;;;;24.56;41.07;100688.78;5108878;28;20130;-67
2022/05/27 00:52:20;;;;;;;7.13;6.53;;;;;;;24.67;40.46;100686.19;5108345;28;20135;-67
2022/05/27 00:54:47;;;;;;;;;;;;;;;24.64;40.14;100693.44;5116795;28;20126;-67
2022/05/27 00:57:35;;;;;;;7.47;6.90;;;;;;;24.69;39.86;100692.34;5115991;28;19959;-67
2022/05/27 01:00:12;;;;;;;8.23;7.53;;;;;;;24.74;39.27;100692.03;5115881;28;20520;-66
2022/05/27 01:02:40;;;;;;;7.95;7.15;;;;;;;24.77;39.11;100697.84;5112071;28;20047;-66
2022/05/27 01:05:09;;;;;;;7.80;6.43;;;;;;;24.75;39.18;100683.13;5095560;28;20134;-66
2022/05/27 01:07:36;;;;;;;7.35;6.85;;;;;;;24.70;38.81;100686.25;5095658;28;20083;-67
2022/05/27 01:10:06;;;;;;;10.27;6.95;;;;;;;24.76;38.54;100679.06;5094311;28;20135;-66
2022/05/27 01:12:39;;;;;;;6.97;6.45;;;;;;;24.75;38.02;100688.84;5112394;28;20127;-66
2022/05/27 01:15:34;;;;;;;8.27;7.72;;;;;;;24.69;38.23;100678.91;5100820;28;20083;-66
2022/05/27 01:20:18;;;;;;;6.57;6.13;;;;;;;24.70;37.62;100679.72;5115103;28;20135;-67
2022/05/27 01:21:19;;;;;;;7.07;6.57;;;;;;;24.76;37.44;100676.19;5115509;28;20039;-67
2022/05/27 01:24:20;;;;;;;8.00;7.40;;;;;;;24.53;37.05;100641.00;5115905;28;20129;-68
2022/05/27 01:27:24;;;;;;;8.10;7.50;;;;;;;24.68;36.76;100667.84;5115826;28;20128;-67
2022/05/27 01:30:16;;;;;;;8.20;7.40;;;;;;;24.73;36.66;100676.94;5115111;28;20079;-66
2022/05/27 01:33:03;;;;;;;7.93;7.35;;;;;;;24.78;36.96;100670.91;5114152;28;20102;-66
2022/05/27 01:35:36;;;;;;;7.82;7.35;;;;;;;24.72;36.57;100666.72;5104221;28;20082;-66
2022/05/27 01:38:25;;;;;;;11.18;7.25;;;;;;;24.74;36.59;100674.91;5114280;28;20048;-66
2022/05/27 01:41:05;;;;;;;6.57;6.05;;;;;;;24.66;36.43;100650.25;5112486;27;20123;-67
2022/05/27 01:43:52;;;;;;;8.05;7.45;;;;;;;24.43;36.45;100611.00;5107265;28;20084;-67
2022/05/27 01:46:30;;;;;;;7.07;6.47;;;;;;;24.80;36.00;100673.41;5110908;27;20134;-68
2022/05/27 01:49:12;;;;;;;7.13;6.55;;;;;;;24.65;35.95;100645.72;5104652;27;20071;-68
2022/05/27 01:51:57;;;;;;;8.60;7.00;;;;;;;24.65;35.59;100658.00;5113682;28;20545;-68
2022/05/27 01:54:42;;;;;;;7.95;7.35;;;;;;;24.68;35.94;100657.22;5113874;28;20051;-68
2022/05/27 01:57:22;;;;;;;6.60;6.20;;;;;;;24.59;35.90;100650.94;5094400;28;20083;-68
2022/05/27 02:00:12;;;;;;;7.60;7.10;;;;;;;24.49;35.11;100640.91;5106331;28;20480;-67
2022/05/27 02:02:47;;;;;;;7.10;6.70;;;;;;;24.62;35.38;100667.31;5112943;28;20134;-68
2022/05/27 02:05:25;;;;;;;7.80;7.25;;;;;;;24.58;35.21;100655.81;5107507;28;20080;-70
2022/05/27 02:08:02;;;;;;;7.47;6.60;;;;;;;24.63;35.55;100663.25;5145730;27;20122;-68
2022/05/27 02:10:28;;;;;;;7.80;7.20;;;;;;;24.59;34.70;100673.78;5094293;28;20079;-67
2022/05/27 02:13:08;;;;;;;7.82;7.43;;;;;;;24.54;35.00;100654.88;5099579;28;20047;-69
2022/05/27 02:15:40;;;;;;;7.40;6.80;;;;;;;24.61;34.51;100662.78;5111103;28;20138;-69
2022/05/27 02:18:29;;;;;;;7.40;6.78;;;;;;;24.72;34.53;100660.19;5107956;28;20130;-68
2022/05/27 02:21:18;;;;;;;7.03;6.53;;;;;;;24.71;34.47;100659.34;5109653;28;20467;-68
2022/05/27 02:23:56;;;;;;;7.32;6.80;;;;;;;24.60;34.15;100658.28;5113072;28;20087;-67
2022/05/27 02:26:31;;;;;;;7.68;7.07;;;;;;;24.61;33.28;100648.50;5114433;28;20130;-67
2022/05/27 02:29:16;;;;;;;7.88;7.13;;;;;;;24.60;33.66;100646.88;5114631;28;20108;-67
2022/05/27 02:31:49;;;;;;;10.05;7.50;;;;;;;24.66;33.75;100645.38;5110383;28;20126;-67
2022/05/27 02:37:28;;;;;;;8.30;7.70;;;;;;;24.45;33.04;100630.63;5050904;28;20049;-67
2022/05/27 02:39:58;;;;;;;8.00;7.60;;;;;;;24.60;33.02;100638.31;5089025;28;20075;-67
2022/05/27 02:42:33;;;;;;;7.43;6.78;;;;;;;24.64;33.43;100629.81;5108230;28;20083;-66
2022/05/27 02:45:12;;;;;;;8.02;7.30;;;;;;;24.62;32.95;100632.22;5114358;28;20479;-68
2022/05/27 02:47:54;;;;;;;7.30;6.85;;;;;;;24.58;33.20;100626.41;5112681;28;20083;-68
2022/05/27 02:50:38;;;;;;;6.95;6.43;;;;;;;24.46;32.72;100615.97;5101551;28;20576;-67
2022/05/27 02:53:08;;;;;;;7.80;7.05;;;;;;;24.59;32.51;100634.63;5108099;28;20131;-67
2022/05/27 02:55:41;;;;;;;8.15;7.53;;;;;;;24.55;32.12;100621.47;5113680;28;20078;-68
2022/05/27 02:58:08;;;;;;;7.28;6.65;;;;;;;24.43;31.60;100604.47;5113324;28;20497;-67
2022/05/27 03:00:36;;;;;;;7.40;6.82;;;;;;;24.40;31.75;100619.47;5110194;28;20575;-67
2022/05/27 03:03:04;;;;;;;7.10;6.72;;;;;;;24.45;31.59;100613.50;5113242;28;20083;-68
2022/05/27 03:06:05;;;;;;;7.22;6.72;;;;;;;24.48;31.93;100616.44;5107026;27;20083;-68
2022/05/27 03:08:54;;;;;;;7.65;7.15;;;;;;;24.36;31.14;100623.06;5110738;28;20114;-68
2022/05/27 03:11:48;;;;;;;8.00;7.50;;;;;;;24.42;31.58;100625.66;5105113;28;20087;-67
2022/05/27 03:14:37;;;;;;;7.43;7.03;;;;;;;24.38;31.24;100628.41;5101220;27;20164;-67
2022/05/27 03:17:14;;;;;;;8.05;7.40;;;;;;;24.35;30.72;100621.41;5107990;28;20117;-69
2022/05/27 03:19:47;;;;;;;7.95;7.25;;;;;;;24.34;30.50;100610.34;5127999;27;20119;-69
2022/05/27 03:22:26;;;;;;;7.30;6.68;;;;;;;24.36;30.47;100614.50;5107972;28;20101;-69
2022/05/27 03:25:05;;;;;;;8.45;7.72;;;;;;;24.28;30.41;100606.97;5113415;28;20185;-69
2022/05/27 03:27:38;;;;;;;7.15;6.75;;;;;;;24.23;30.17;100595.03;5113302;28;20139;-69
2022/05/27 03:30:10;;;;;;;7.40;7.00;;;;;;;24.20;29.80;100584.34;5113512;27;20458;-71
2022/05/27 03:32:52;;;;;;;7.72;7.22;;;;;;;24.32;30.13;100622.16;5110754;28;20136;-70
2022/05/27 03:35:31;;;;;;;7.97;7.47;;;;;;;24.29;29.79;100597.22;5109610;28;20469;-70
2022/05/27 03:38:16;;;;;;;7.90;7.33;;;;;;;24.29;29.70;100611.47;5111124;28;20083;-70
2022/05/27 03:40:58;;;;;;;7.28;6.85;;;;;;;24.10;29.36;100588.59;5098260;28;20326;-68
2022/05/27 03:43:27;;;;;;;8.50;7.78;;;;;;;24.19;29.78;100592.09;5108152;28;20058;-70
2022/05/27 03:45:57;;;;;;;6.47;6.03;;;;;;;24.23;30.03;100604.41;5112522;28;20135;-70
2022/05/27 03:48:28;;;;;;;7.47;6.88;;;;;;;24.17;29.28;100591.66;5111192;28;20039;-70
2022/05/27 03:51:04;;;;;;;6.80;6.40;;;;;;;24.06;29.45;100587.69;5102185;28;20170;-69
2022/05/27 03:56:17;;;;;;;8.13;7.43;;;;;;;24.02;28.98;100592.50;5092633;28;20052;-69
2022/05/27 03:58:43;;;;;;;8.05;7.55;;;;;;;24.10;29.61;100603.72;5092405;28;20135;-69
2022/05/27 04:01:10;;;;;;;7.10;6.70;;;;;;;23.92;29.54;100584.50;5102305;28;20055;-69
2022/05/27 04:03:37;;;;;;;7.93;7.40;;;;;;;23.88;29.10;100592.97;5112882;28;20057;-69
2022/05/27 04:06:04;;;;;;;7.72;7.22;;;;;;;23.84;28.91;100609.19;5105524;28;20135;-70
2022/05/27 04:08:31;;;;;;;7.57;7.13;;;;;;;23.96;29.10;100605.38;5100608;28;20131;-69
2022/05/27 04:10:58;;;;;;;7.40;6.72;;;;;;;23.80;28.96;100597.69;5111116;28;20529;-69
2022/05/27 04:13:25;;;;;;;6.97;6.57;;;;;;;23.87;29.57;100608.44;5109306;28;20082;-69
2022/05/27 04:15:51;;;;;;;7.57;6.78;;;;;;;23.93;29.18;100611.81;5092498;28;20076;-69
2022/05/27 04:18:18;;;;;;;7.20;6.80;;;;;;;23.83;29.36;100622.63;5092422;28;20131;-70
2022/05/27 04:20:45;;;;;;;7.90;7.18;;;;;;;23.83;29.29;100605.50;5095108;28;20056;-70
2022/05/27 04:23:12;;;;;;;7.93;7.32;;;;;;;23.80;29.36;100606.25;5103980;28;20541;-71
2022/05/27 04:25:39;;;;;;;7.80;7.40;;;;;;;23.73;29.11;100594.66;5105934;28;20075;-69
2022/05/27 04:28:06;;;;;;;7.43;6.93;;;;;;;23.80;29.49;100619.69;5116525;27;20133;-68
2022/05/27 04:30:33;;;;;;;7.93;7.50;;;;;;;23.69;29.23;100610.00;5101702;28;20524;-69
2022/05/27 04:33:00;;;;;;;7.60;7.20;;;;;;;23.63;29.59;100606.59;5114635;27;20061;-68
2022/05/27 04:35:27;;;;;;;7.55;7.03;;;;;;;23.63;29.45;100620.84;5112087;27;20135;-69
2022/05/27 04:37:53;;;;;;;7.70;7.10;;;;;;;23.56;29.59;100620.66;5115393;28;20135;-70
2022/05/27 04:40:21;;;;;;;6.90;6.50;;;;;;;23.48;29.49;100619.63;5110677;27;20146;-69
2022/05/27 04:42:47;;;;;;;8.07;7.57;;;;;;;23.43;29.71;100625.59;5108953;27;20134;-70
2022/05/27 04:45:14;;;;;;;7.40;6.90;;;;;;;23.46;30.12;100641.16;5114293;27;20071;-70
2022/05/27 04:47:41;;;;;;;7.20;6.80;;;;;;;23.32;30.18;100619.63;5116677;28;20130;-69
2022/05/27 04:50:11;;;;;;;8.60;7.90;;;;;;;23.30;30.13;100619.16;5109024;27;20135;-68
2022/05/27 04:52:39;;;;;;;7.30;6.85;;;;;;;22.87;30.26;100549.59;5108079;28;20468;-69
2022/05/27 04:55:09;;;;;;;8.00;7.40;;;;;;;23.39;29.80;100624.69;5109419;27;20170;-68
2022/05/27 04:57:40;;;;;;;7.95;7.45;;;;;;;23.26;30.24;100606.84;5112196;28;20500;-69
2022/05/27 05:00:17;;;;;;;8.57;8.07;;;;;;;23.40;29.99;100618.59;5112708;27;20600;-69
2022/05/27 05:02:44;;;;;;;8.25;7.85;;;;;;;23.26;29.87;100606.84;5109254;27;20051;-70
2022/05/27 05:05:14;;;;;;;7.95;7.45;;;;;;;23.30;29.82;100624.84;5109038;28;20083;-68
2022/05/27 05:07:43;;;;;;;7.78;7.38;;;;;;;23.23;30.15;100627.50;5111036;27;20073;-69
2022/05/27 05:10:13;;;;;;;8.50;7.90;;;;;;;23.30;29.80;100619.16;5106155;27;20112;-69
2022/05/27 05:12:40;;;;;;;7.43;7.03;;;;;;;23.09;30.14;100619.38;5112159;27;20070;-70
2022/05/27 05:15:07;;;;;;;7.97;7.47;;;;;;;23.21;29.84;100626.19;5115637;27;20130;-69
2022/05/27 05:17:34;;;;;;;8.18;7.68;;;;;;;23.09;29.78;100618.56;5112078;28;20498;-68
2022/05/27 05:20:04;;;;;;;9.18;8.02;;;;;;;23.03;29.97;100608.63;5102720;27;20626;-69
2022/05/27 05:22:31;;;;;;;7.60;7.20;;;;;;;23.08;30.05;100622.63;5114454;27;20138;-69
2022/05/27 05:24:58;;;;;;;7.68;7.07;;;;;;;23.23;29.78;100640.94;5106740;27;20086;-69
2022/05/27 05:27:28;;;;;;;8.05;7.45;;;;;;;23.17;29.97;100643.19;5109069;28;20070;-69
2022/05/27 05:29:56;;;;;;;7.88;7.28;;;;;;;23.17;30.14;100637.50;5113687;28;20075;-69
2022/05/27 05:32:23;;;;;;;7.60;6.97;;;;;;;23.25;29.86;100635.66;5112507;27;20131;-69
2022/05/27 05:34:53;;;;;;;8.35;7.85;;;;;;;23.40;29.98;100646.28;5111423;27;20514;-69
2022/05/27 05:37:21;;;;;;;8.52;7.70;;;;;;;23.33;29.76;100624.13;5108749;27;20107;-68
2022/05/27 05:39:48;;;;;;;8.02;7.53;;;;;;;23.53;29.35;100644.19;5114191;28;20127;-69
2022/05/27 05:42:15;;;;;;;7.10;6.70;;;;;;;23.55;29.52;100636.09;5103536;27;20087;-69
2022/05/27 05:44:41;;;;;;;7.32;6.72;;;;;;;23.74;28.72;100659.03;5107075;27;20138;-69
2022/05/27 05:47:08;;;;;;;6.90;6.50;;;;;;;23.80;28.49;100651.88;5110053;27;20130;-66
2022/05/27 05:49:35;;;;;;;6.47;6.13;;;;;;;23.83;28.70;100653.97;5106196;28;20047;-67
2022/05/27 05:52:03;;;;;;;7.20;6.65;;;;;;;24.01;28.45;100648.72;5114739;27;20085;-82
2022/05/27 05:54:30;;;;;;;7.18;6.78;;;;;;;24.34;27.89;100667.44;5110502;27;20079;-67
2022/05/27 05:57:03;;;;;;;7.85;7.35;;;;;;;24.36;27.91;100656.47;5110702;27;20147;-68
2022/05/27 05:59:31;;;;;;;7.30;6.88;;;;;;;24.60;27.58;100666.84;5103125;28;20158;-68
2022/05/27 06:02:00;;;;;;;7.57;7.07;;;;;;;24.65;27.07;100652.31;5109614;28;20078;-68
2022/05/27 06:04:28;;;;;;;8.73;7.28;;;;;;;24.67;26.86;100669.88;5112205;27;20618;-79
2022/05/27 06:06:56;;;;;;;7.85;7.45;;;;;;;24.54;26.77;100651.22;5112409;28;20071;-78
2022/05/27 06:09:25;;;;;;;6.72;6.43;;;;;;;24.80;26.61;100662.81;5111933;27;20564;-77
2022/05/27 06:11:57;;;;;;;7.65;7.20;;;;;;;24.93;26.63;100654.13;5109108;27;20134;-77
2022/05/27 06:14:24;;;;;;;7.72;7.32;;;;;;;25.20;25.98;100664.50;5102500;28;20073;-67
2022/05/27 06:16:51;;;;;;;7.95;7.55;;;;;;;25.22;25.71;100664.13;5106605;27;20130;-68
2022/05/27 06:19:18;;;;;;;8.10;7.60;;;;;;;25.40;25.84;100667.31;5103190;28;20047;-68
2022/05/27 06:21:45;;;;;;;7.93;7.30;;;;;;;25.33;25.68;100661.47;5134656;27;20052;-67
2022/05/27 06:24:12;;;;;;;8.32;7.93;;;;;;;25.19;25.60;100651.41;5104448;27;20134;-67
2022/05/27 06:26:39;;;;;;;7.90;7.50;;;;;;;25.47;25.84;100658.88;5113011;27;20055;-67
2022/05/27 06:34:37;;;;;;;8.02;7.63;;;;;;;25.53;25.42;100660.22;5108924;27;20078;-67
2022/05/27 06:37:10;;;;;;;9.65;9.15;;;;;;;25.54;25.02;100650.47;5110938;27;20131;-68
2022/05/27 06:39:38;;;;;;;7.53;7.13;;;;;;;25.91;25.30;100665.03;5105671;27;20130;-67
2022/05/27 06:42:08;;;;;;;12.25;11.45;;;;;;;26.23;25.03;100641.84;5109099;28;20055;-69
2022/05/27 06:44:55;;;;;;;9.73;9.20;;;;;;;26.81;24.63;100650.06;5109205;28;20056;-69
2022/05/27 06:47:23;;;;;;;8.00;7.50;;;;;;;27.33;24.41;100659.75;5108004;28;20494;-69
2022/05/27 06:49:50;;;;;;;9.55;8.98;;;;;;;27.72;24.50;100664.25;5105172;27;20473;-69
2022/05/27 06:52:17;;;;;;;9.02;8.27;;;;;;;28.08;24.26;100663.38;5107939;28;20073;-69
2022/05/27 06:54:44;;;;;;;8.52;7.82;;;;;;;28.15;23.55;100674.09;5104154;27;20083;-69
2022/05/27 06:57:11;;;;;;;10.55;9.75;;;;;;;28.22;23.59;100654.03;5103471;28;20083;-69
2022/05/27 06:59:38;;;;;;;8.57;7.72;;;;;;;28.01;23.17;100653.88;5108799;28;20475;-69
2022/05/27 07:02:06;;;;;;;8.57;8.10;;;;;;;27.91;22.67;100666.09;5098398;28;20147;-69
2022/05/27 07:04:34;;;;;;;8.20;7.47;;;;;;;27.57;23.08;100618.19;5100509;28;20074;-69
2022/05/27 07:07:04;;;;;;;7.82;6.70;;;;;;;27.84;22.92;100649.63;5107430;28;20059;-68
2022/05/27 07:09:35;;;;;;;8.00;7.60;;;;;;;28.02;22.86;100664.94;5102270;28;20278;-69
2022/05/27 07:12:08;;;;;;;7.97;7.38;;;;;;;27.98;22.30;100666.97;5111133;28;20138;-69
2022/05/27 07:14:36;;;;;;;8.90;8.43;;;;;;;28.22;22.49;100658.97;5099128;28;20131;-68
2022/05/27 07:17:04;;;;;;;8.95;8.23;;;;;;;28.63;22.73;100668.31;5103822;27;20486;-69
2022/05/27 07:19:39;;;;;;;7.68;7.25;;;;;;;28.96;22.48;100657.81;5102466;27;20486;-69
2022/05/27 07:22:11;;;;;;;7.90;7.43;;;;;;;28.69;22.00;100660.13;5103439;28;20043;-68
2022/05/27 07:24:38;;;;;;;10.13;9.27;;;;;;;28.81;22.60;100656.91;5103855;28;20051;-68
2022/05/27 07:27:06;;;;;;;8.35;7.75;;;;;;;29.00;22.47;100650.88;5104880;28;20056;-68
2022/05/27 07:29:33;;;;;;;7.38;6.97;;;;;;;29.33;22.88;100665.34;5106821;27;20082;-68
2022/05/27 07:31:59;;;;;;;8.43;7.75;;;;;;;29.57;22.52;100641.56;5105801;28;20126;-69
2022/05/27 07:34:27;;;;;;;7.75;7.15;;;;;;;30.07;22.47;100656.03;5104795;28;20142;-69
2022/05/27 07:36:54;;;;;;;7.75;7.28;;;;;;;30.28;22.21;100657.28;5108446;27;20159;-69
2022/05/27 07:39:20;;;;;;;8.38;7.50;;;;;;;30.54;22.08;100658.88;5110627;28;20079;-69
2022/05/27 07:41:47;;;;;;;9.07;8.48;;;;;;;30.44;21.69;100641.19;5107409;28;20083;-68
2022/05/27 07:44:15;;;;;;;8.30;7.40;;;;;;;30.49;21.47;100639.13;5105494;28;20134;-69
2022/05/27 07:46:42;;;;;;;9.50;8.80;;;;;;;30.45;21.06;100637.06;5107589;28;20086;-69
2022/05/27 07:49:09;;;;;;;9.32;8.73;;;;;;;30.44;20.97;100649.03;5103239;28;20508;-69
2022/05/27 07:51:56;;;;;;;8.30;7.90;;;;;;;30.28;20.73;100642.88;5102172;28;20422;-69
2022/05/27 07:54:23;;;;;;;8.40;7.88;;;;;;;30.05;21.25;100655.63;5104480;28;20075;-68
2022/05/27 07:56:50;;;;;;;10.38;9.88;;;;;;;29.55;20.57;100648.97;5103074;28;20154;-68
2022/05/27 07:59:16;;;;;;;8.35;7.63;;;;;;;29.57;21.34;100653.06;5104606;28;20146;-69
2022/05/27 08:01:43;;;;;;;10.18;9.27;;;;;;;29.76;20.24;100649.03;5103151;27;20497;-69
2022/05/27 08:04:11;;;;;;;8.40;7.95;;;;;;;29.70;20.78;100639.16;5108866;28;20071;-68
2022/05/27 08:06:38;;;;;;;8.43;7.88;;;;;;;29.56;20.70;100656.38;5107394;28;20043;-69
2022/05/27 08:09:12;;;;;;;7.22;6.82;;;;;;;29.29;20.67;100648.91;5106604;28;20054;-68
2022/05/27 08:11:40;;;;;;;7.40;7.00;;;;;;;28.93;20.92;100639.31;5107557;27;20096;-68
2022/05/27 08:14:08;;;;;;;6.90;6.60;;;;;;;29.16;21.00;100644.78;5109673;27;20058;-68
2022/05/27 08:16:36;;;;;;;;;;;;;;;28.75;21.20;100670.00;5107848;28;20047;-68
2022/05/27 08:19:03;;;;;;;11.32;10.80;;;;;;;28.74;20.90;100668.34;5111044;28;19965;-69
2022/05/27 08:21:30;;;;;;;6.80;6.35;;;;;;;28.83;21.29;100648.72;5109684;28;20074;-68
2022/05/27 08:23:57;;;;;;;8.50;8.00;;;;;;;28.90;21.08;100657.34;5110833;27;20059;-69
2022/05/27 08:26:24;;;;;;;7.82;7.13;;;;;;;28.93;20.90;100641.38;5112791;27;20131;-69
2022/05/27 08:28:51;;;;;;;7.50;7.10;;;;;;;28.93;20.97;100607.69;5112292;27;20082;-69
2022/05/27 08:31:18;;;;;;;11.05;10.00;;;;;;;29.27;20.71;100645.63;5111642;27;20134;-69
2022/05/27 08:39:17;;;;;;;8.77;8.27;;;;;;;28.27;21.23;100649.97;5110832;28;20139;-69
2022/05/27 08:41:57;;;;;;;7.20;6.90;;;;;;;28.30;21.60;100643.44;5107778;27;20149;-68
2022/05/27 08:44:37;;;;;;;7.57;7.10;;;;;;;28.23;21.71;100674.97;5109256;27;20072;-68
2022/05/27 08:47:22;;;;;;;8.38;7.97;;;;;;;27.94;21.79;100683.34;5108365;27;20150;-68
2022/05/27 08:50:02;;;;;;;7.28;6.88;;;;;;;27.84;22.20;100626.69;5109013;27;20126;-69
2022/05/27 08:52:44;;;;;;;8.95;8.55;;;;;;;27.83;22.39;100645.13;5108494;27;20067;-68
2022/05/27 09:01:20;;;;;;;7.90;7.43;;;;;;;28.75;22.35;100638.38;5106831;27;20105;-69
2022/05/27 09:03:58;;;;;;;7.57;7.07;;;;;;;29.34;21.89;100627.56;5114265;28;20134;-69
2022/05/27 09:06:35;;;;;;;6.50;6.20;;;;;;;29.36;21.63;100622.19;5110690;27;20155;-68
2022/05/27 09:09:06;;;;;;;7.60;6.90;;;;;;;29.66;21.61;100623.94;5109297;27;20177;-68
2022/05/27 09:12:21;;;;;;;6.10;5.80;;;;;;;29.74;21.34;100631.34;5104964;27;20048;-68
2022/05/27 09:14:57;;;;;;;7.15;6.30;;;;;;;29.91;21.52;100641.22;5099133;28;20134;-68
2022/05/27 09:17:41;;;;;;;7.00;6.50;;;;;;;29.79;20.78;100624.38;5105610;28;20069;-67
2022/05/27 09:20:08;;;;;;;6.70;6.40;;;;;;;30.10;20.94;100645.75;5111547;27;20189;-68
2022/05/27 09:23:04;;;;;;;7.28;6.57;;;;;;;29.87;20.86;100632.56;5110542;27;20126;-68
2022/05/27 09:25:54;;;;;;;7.63;7.13;;;;;;;29.98;21.52;100644.09;5110187;28;20047;-68
2022/05/27 09:28:41;;;;;;;6.90;6.50;;;;;;;29.95;20.79;100628.47;5111869;28;20079;-68
2022/05/27 09:31:11;;;;;;;7.47;7.07;;;;;;;30.13;20.52;100624.75;5107663;28;20090;-69
2022/05/27 09:33:39;;;;;;;7.32;6.93;;;;;;;30.38;21.10;100621.88;5111785;27;22812;-68
2022/05/27 09:36:18;;;;;;;9.60;9.15;;;;;;;30.65;20.60;100613.56;5104220;27;20516;-68
2022/05/27 09:38:52;;;;;;;8.13;7.43;;;;;;;31.14;20.83;100624.06;5103350;28;20070;-68
2022/05/27 09:41:33;;;;;;;6.82;6.50;;;;;;;31.44;19.91;100625.59;5110015;27;20142;-68
2022/05/27 09:44:09;;;;;;;8.55;6.72;;;;;;;30.83;20.12;100625.88;5114126;28;20138;-66
2022/05/27 09:46:36;;;;;;;10.70;9.10;;;;;;;30.35;20.74;100614.03;5118460;27;20039;-68
2022/05/27 09:49:03;;;;;;;8.30;7.90;;;;;;;30.41;20.97;100621.03;5117907;27;20058;-68
2022/05/27 09:51:31;;;;;;;6.65;6.32;;;;;;;30.25;20.68;100630.13;5108274;28;20079;-69
2022/05/27 09:54:26;;;;;;;7.63;6.93;;;;;;;29.87;21.40;100603.78;5103447;28;20723;-68
2022/05/27 09:56:58;;;;;;;7.82;7.20;;;;;;;29.58;21.34;100619.38;5103623;28;20335;-69
2022/05/27 09:59:34;;;;;;;8.23;7.82;;;;;;;29.10;21.87;100622.56;5113894;27;20082;-69
2022/05/27 10:02:20;;;;;;;8.07;7.28;;;;;;;28.77;22.39;100613.78;5105266;28;20067;-69
2022/05/27 10:04:50;;;;;;;6.38;6.07;;;;;;;28.71;22.48;100617.44;5110302;27;20494;-69
2022/05/27 10:07:28;;;;;;;7.15;6.75;;;;;;;28.70;22.34;100610.88;5105705;27;20139;-68
2022/05/27 10:09:55;;;;;;;7.22;6.63;;;;;;;28.67;22.27;100619.47;5111075;27;20099;-68
2022/05/27 10:12:29;;;;;;;5.88;5.47;;;;;;;28.52;22.07;100601.34;5098827;27;20105;-69
2022/05/27 10:14:56;;;;;;;7.22;6.82;;;;;;;28.65;22.35;100616.16;5105212;27;20082;-68
2022/05/27 10:17:42;;;;;;;8.63;8.23;;;;;;;28.82;22.74;100603.94;5100945;27;20091;-67
2022/05/27 10:20:14;;;;;;;7.28;6.88;;;;;;;29.11;22.16;100618.44;5103567;28;20127;-69
2022/05/27 10:22:41;;;;;;;7.18;6.70;;;;;;;29.11;22.52;100618.44;5105546;28;20084;-68
2022/05/27 10:25:12;;;;;;;7.10;6.70;;;;;;;29.32;22.62;100609.06;5104297;27;20048;-68
2022/05/27 10:27:44;;;;;;;10.82;10.10;;;;;;;29.77;22.21;100606.66;5108957;27;20047;-68
2022/05/27 10:30:29;;;;;;;8.60;7.97;;;;;;;30.20;22.32;100601.75;5102330;27;20533;-68
2022/05/27 10:33:19;;;;;;;7.20;6.80;;;;;;;30.50;21.84;100606.22;5108950;27;20498;-69
2022/05/27 10:35:49;;;;;;;9.35;8.85;;;;;;;30.71;21.72;100599.56;5103246;27;20116;-67
2022/05/27 10:38:43;;;;;;;8.27;7.88;;;;;;;30.91;20.78;100603.63;5102804;27;20170;-67
2022/05/27 10:41:53;;;;;;;8.52;8.02;;;;;;;31.31;20.48;100596.38;5101050;28;20138;-68
2022/05/27 10:44:20;;;;;;;10.27;9.75;;;;;;;32.16;20.20;100596.97;5081136;28;20043;-68
2022/05/27 10:46:54;;;;;;;7.68;7.38;;;;;;;32.47;19.97;100588.41;5103595;28;20585;-69
2022/05/27 10:49:39;;;;;;;8.18;7.78;;;;;;;32.58;18.81;100602.75;5102416;28;20502;-68
2022/05/27 10:52:21;;;;;;;8.23;7.45;;;;;;;32.87;18.90;100589.59;5106359;27;20127;-69
2022/05/27 10:55:08;;;;;;;8.15;7.65;;;;;;;32.81;18.66;100556.59;5107840;28;20518;-68
2022/05/27 11:04:18;;;;;;;11.13;10.18;;;;;;;33.07;18.47;100566.63;5096820;28;20067;-67
2022/05/27 11:07:06;;;;;;;7.93;7.53;;;;;;;33.34;18.50;100565.81;5092975;28;20051;-69
2022/05/27 11:09:58;;;;;;;8.38;7.97;;;;;;;33.36;18.09;100571.97;5089851;28;20139;-69
2022/05/27 11:16:11;;;;;;;7.70;7.18;;;;;;;34.18;17.99;100554.03;5092596;28;20174;-68
2022/05/27 11:19:04;;;;;;;8.30;7.88;;;;;;;34.51;17.67;100551.38;5065880;28;20414;-67
2022/05/27 11:21:40;;;;;;;7.70;7.30;;;;;;;35.12;17.72;100541.38;5101524;28;20083;-67
2022/05/27 11:24:07;;;;;;;7.78;7.38;;;;;;;35.34;17.49;100561.97;5090445;28;20136;-67
2022/05/27 11:26:46;;;;;;;8.43;8.02;;;;;;;35.17;17.16;100540.00;5095545;28;20527;-68
2022/05/27 11:29:35;;;;;;;8.18;7.78;;;;;;;34.85;17.35;100536.53;5091154;28;20142;-68
2022/05/27 11:32:12;;;;;;;8.63;7.88;;;;;;;34.79;17.21;100541.22;5097659;28;20190;-68
2022/05/27 11:35:08;;;;;;;11.48;10.98;;;;;;;34.97;17.30;100511.00;5091143;28;20131;-68
2022/05/27 11:37:47;;;;;;;10.38;9.88;;;;;;;35.34;16.78;100527.13;5092910;28;20131;-68
2022/05/27 11:40:32;;;;;;;7.32;7.03;;;;;;;35.02;16.21;100533.72;5089355;28;20087;-67
2022/05/27 11:43:14;;;;;;;8.73;8.32;;;;;;;35.09;16.32;100528.56;5089408;28;20048;-69
2022/05/27 11:45:56;;;;;;;9.00;8.50;;;;;;;35.14;16.21;100525.13;5095844;28;20056;-69
2022/05/27 11:48:46;;;;;;;7.95;7.30;;;;;;;35.52;16.51;100520.91;5104132;28;20083;-67
2022/05/27 11:51:29;;;;;;;11.07;10.48;;;;;;;35.48;16.44;100511.44;5089068;28;20151;-69
2022/05/27 11:54:08;;;;;;;9.73;9.20;;;;;;;36.19;16.24;100523.31;5093760;28;20138;-68
2022/05/27 11:56:42;;;;;;;;;;;;;;;36.64;17.08;100519.53;5095190;28;20592;-69
2022/05/27 11:59:14;;;;;;;8.27;7.78;;;;;;;37.35;16.08;100520.22;5102637;28;19999;-69
2022/05/27 12:01:48;;;;;;;8.27;7.88;;;;;;;38.09;15.48;100507.28;5104430;28;20120;-68
2022/05/27 12:04:25;;;;;;;7.28;6.93;;;;;;;38.30;14.95;100496.13;5110804;28;20071;-75
2022/05/27 12:07:01;;;;;;;9.25;8.80;;;;;;;38.53;14.21;100497.75;5117967;27;20043;-67
2022/05/27 12:09:38;;;;;;;7.35;6.80;;;;;;;39.04;13.65;100488.66;5100376;28;20127;-69
2022/05/27 12:12:13;;;;;;;7.55;7.15;;;;;;;39.72;13.59;100492.50;5106524;28;20100;-69
2022/05/27 12:14:48;;;;;;;7.70;7.30;;;;;;;40.02;12.75;100481.19;5098329;28;20071;-69
2022/05/27 12:17:22;;;;;;;8.45;7.75;;;;;;;40.60;12.23;100508.66;5091676;28;20136;-69
2022/05/27 12:19:59;;;;;;;8.57;8.18;;;;;;;40.88;11.73;100483.03;5091754;28;20134;-68
2022/05/27 12:22:32;;;;;;;6.90;6.30;;;;;;;41.57;11.29;100495.97;5100073;28;20077;-69
2022/05/27 12:25:16;;;;;;;8.30;6.88;;;;;;;41.90;11.38;100487.13;5094059;28;20040;-69
2022/05/27 12:27:43;;;;;;;6.90;6.60;;;;;;;42.45;11.21;100482.91;5095472;28;20578;-68